createdAt,value
2023-05-19T00:02:26.037Z,2.00
2023-05-19T00:04:53.564Z,1.58
2023-05-19T00:07:26.025Z,1.88
2023-05-19T00:09:53.437Z,1.80
2023-05-19T00:12:20.280Z,2.05
2023-05-19T00:14:47.204Z,2.00
2023-05-19T00:17:14.518Z,2.03
2023-05-19T00:19:41.115Z,1.80
2023-05-19T00:22:07.668Z,1.70
2023-05-19T00:24:34.878Z,1.50
2023-05-19T00:27:01.541Z,1.98
2023-05-19T00:29:29.527Z,2.10
2023-05-19T00:31:56.662Z,2.20
2023-05-19T00:34:23.725Z,2.00
2023-05-19T00:36:50.653Z,2.80
2023-05-19T00:39:17.219Z,1.77
2023-05-19T00:41:44.067Z,2.28
2023-05-19T00:44:10.652Z,2.20
2023-05-19T00:46:38.200Z,1.98
2023-05-19T00:49:05.103Z,2.00
2023-05-19T00:51:32.089Z,1.80
2023-05-19T00:53:59.233Z,2.60
2023-05-19T00:56:26.469Z,1.98
2023-05-19T00:58:54.724Z,2.25
2023-05-19T01:01:22.488Z,2.15
2023-05-19T01:03:49.902Z,1.83
2023-05-19T01:06:19.315Z,2.38
2023-05-19T01:08:46.572Z,2.10
2023-05-19T01:11:13.329Z,1.83
2023-05-19T01:13:42.078Z,2.00
2023-05-19T01:16:09.191Z,2.33
2023-05-19T01:18:46.357Z,2.50
2023-05-19T01:21:53.915Z,2.50
2023-05-19T01:24:45.447Z,2.00
2023-05-19T01:27:41.125Z,2.60
2023-05-19T01:30:26.271Z,2.05
2023-05-19T01:33:00.402Z,2.17
2023-05-19T01:35:28.716Z,2.13
2023-05-19T01:37:58.108Z,2.90
2023-05-19T01:40:26.560Z,1.92
2023-05-19T01:42:57.509Z,2.17
2023-05-19T01:45:27.901Z,2.22
2023-05-19T01:47:57.646Z,2.28
2023-05-19T01:50:24.568Z,1.95
2023-05-19T01:52:52.288Z,2.45
2023-05-19T01:55:19.548Z,2.45
2023-05-19T01:58:05.230Z,2.97
2023-05-19T02:00:44.316Z,2.80
2023-05-19T02:03:19.210Z,2.70
2023-05-19T02:05:55.519Z,2.38
2023-05-19T02:08:43.198Z,2.25
2023-05-19T02:11:38.074Z,2.25
2023-05-19T02:14:16.196Z,2.95
2023-05-19T02:16:47.625Z,2.40
2023-05-19T02:19:26.255Z,2.50
2023-05-19T02:21:55.247Z,2.65
2023-05-19T02:24:22.872Z,2.88
2023-05-19T02:26:50.662Z,2.65
2023-05-19T02:29:19.359Z,2.78
2023-05-19T02:31:46.378Z,2.90
2023-05-19T02:34:13.163Z,2.47
2023-05-19T02:36:43.150Z,2.55
2023-05-19T02:39:11.034Z,2.80
2023-05-19T02:41:38.739Z,2.17
2023-05-19T02:44:05.994Z,2.83
2023-05-19T02:46:33.151Z,2.50
2023-05-19T02:48:59.974Z,3.00
2023-05-19T02:51:27.755Z,2.30
2023-05-19T02:53:54.470Z,2.70
2023-05-19T02:56:21.774Z,2.35
2023-05-19T02:58:48.828Z,2.15
2023-05-19T03:01:16.541Z,2.40
2023-05-19T03:03:43.496Z,2.28
2023-05-19T03:06:10.200Z,2.50
2023-05-19T03:08:36.990Z,2.72
2023-05-19T03:11:03.899Z,2.67
2023-05-19T03:13:30.692Z,2.47
2023-05-19T03:15:59.287Z,2.33
2023-05-19T03:18:26.927Z,2.70
2023-05-19T03:20:56.616Z,2.58
2023-05-19T03:23:23.379Z,2.78
2023-05-19T03:25:50.180Z,2.47
2023-05-19T03:28:17.441Z,2.75
2023-05-19T03:30:44.135Z,2.40
2023-05-19T03:33:14.694Z,2.88
2023-05-19T03:35:42.023Z,2.53
2023-05-19T03:38:08.916Z,2.53
2023-05-19T03:40:35.543Z,2.40
2023-05-19T03:43:06.241Z,3.17
2023-05-19T03:45:37.821Z,2.47
2023-05-19T03:48:21.304Z,2.17
2023-05-19T03:51:17.668Z,2.90
2023-05-19T03:53:45.898Z,2.60
2023-05-19T03:56:13.840Z,2.45
2023-05-19T03:58:45.106Z,2.50
2023-05-19T04:01:11.983Z,2.28
2023-05-19T04:03:38.840Z,2.47
2023-05-19T04:06:08.582Z,1.88
2023-05-19T04:08:35.336Z,2.47
2023-05-19T04:11:02.440Z,2.85
2023-05-19T04:13:29.452Z,2.72
2023-05-19T04:15:56.190Z,2.30
2023-05-19T04:18:22.968Z,2.05
2023-05-19T04:20:49.814Z,2.72
2023-05-19T04:23:16.861Z,2.53
2023-05-19T04:25:44.444Z,3.00
2023-05-19T04:28:11.337Z,2.28
2023-05-19T04:30:38.757Z,2.90
2023-05-19T04:33:05.532Z,2.35
2023-05-19T04:35:32.491Z,2.50
2023-05-19T04:38:01.710Z,2.65
2023-05-19T04:40:31.810Z,2.42
2023-05-19T04:42:59.049Z,2.55
2023-05-19T04:45:26.144Z,2.53
2023-05-19T04:47:58.356Z,2.88
2023-05-19T04:50:25.490Z,2.60
2023-05-19T04:52:52.679Z,2.90
2023-05-19T04:55:19.693Z,2.70
2023-05-19T04:57:48.213Z,2.40
2023-05-19T05:00:15.530Z,2.53
2023-05-19T05:03:14.630Z,2.50
2023-05-19T05:05:41.386Z,2.67
2023-05-19T05:08:09.685Z,3.00
2023-05-19T05:10:40.394Z,2.30
2023-05-19T05:13:08.694Z,2.50
2023-05-19T05:15:36.873Z,2.35
2023-05-19T05:18:04.949Z,3.95
2023-05-19T05:20:32.472Z,3.03
2023-05-19T05:22:59.859Z,2.97
2023-05-19T05:25:27.341Z,2.85
2023-05-19T05:27:54.333Z,2.67
2023-05-19T05:30:21.040Z,2.38
2023-05-19T05:32:48.131Z,2.35
2023-05-19T05:35:36.773Z,2.97
2023-05-19T05:38:04.717Z,2.72
2023-05-19T05:40:31.375Z,1.90
2023-05-19T05:43:01.218Z,2.65
2023-05-19T05:45:31.632Z,2.80
2023-05-19T05:48:01.058Z,2.65
2023-05-19T05:50:28.414Z,2.20
2023-05-19T05:52:57.490Z,2.67
2023-05-19T05:55:25.612Z,2.35
2023-05-19T05:57:52.375Z,2.33
2023-05-19T06:00:21.564Z,1.98
2023-05-19T06:02:52.315Z,1.92
2023-05-19T06:05:20.017Z,2.20
2023-05-19T06:07:48.731Z,2.50
2023-05-19T06:10:21.588Z,2.10
2023-05-19T06:12:49.606Z,2.63
2023-05-19T06:15:16.291Z,2.22
2023-05-19T06:17:43.043Z,2.63
2023-05-19T06:20:10.493Z,2.17
2023-05-19T06:22:37.313Z,2.33
2023-05-19T06:25:05.999Z,2.38
2023-05-19T06:27:34.866Z,2.38
2023-05-19T06:30:03.143Z,2.10
2023-05-19T06:32:36.167Z,2.35
2023-05-19T06:35:02.914Z,1.70
2023-05-19T06:37:30.009Z,1.90
2023-05-19T06:39:57.230Z,2.42
2023-05-19T06:42:25.461Z,1.80
2023-05-19T06:45:02.040Z,2.20
2023-05-19T06:47:28.816Z,1.85
2023-05-19T06:49:55.887Z,3.38
2023-05-19T06:52:26.389Z,1.60
2023-05-19T06:54:53.620Z,2.47
2023-05-19T06:57:21.291Z,2.35
2023-05-19T06:59:47.845Z,2.38
2023-05-19T07:02:15.081Z,1.50
2023-05-19T07:04:43.021Z,1.90
2023-05-19T07:07:11.541Z,1.48
2023-05-19T07:09:38.333Z,1.55
2023-05-19T07:12:05.234Z,1.52
2023-05-19T07:14:32.244Z,2.08
2023-05-19T07:16:59.044Z,1.85
2023-05-19T07:19:25.908Z,1.85
2023-05-19T07:21:54.970Z,1.90
2023-05-19T07:24:22.187Z,1.65
2023-05-19T07:26:49.203Z,1.70
2023-05-19T07:29:16.321Z,1.67
2023-05-19T07:31:42.957Z,0.90
2023-05-19T07:34:09.739Z,1.17
2023-05-19T07:36:36.618Z,1.20
2023-05-19T07:39:03.536Z,1.27
2023-05-19T07:41:30.488Z,1.60
2023-05-19T07:43:57.077Z,1.30
2023-05-19T07:46:23.855Z,1.65
2023-05-19T07:48:50.527Z,1.70
2023-05-19T07:51:17.296Z,1.10
2023-05-19T07:53:44.084Z,1.13
2023-05-19T07:56:10.837Z,1.60
2023-05-19T07:58:37.590Z,1.50
2023-05-19T08:01:04.400Z,1.35
2023-05-19T08:03:31.171Z,2.42
2023-05-19T08:05:58.016Z,1.20
2023-05-19T08:08:24.951Z,1.42
2023-05-19T08:10:51.638Z,1.50
2023-05-19T08:13:18.318Z,1.40
2023-05-19T08:15:45.245Z,1.63
2023-05-19T08:18:11.964Z,1.30
2023-05-19T08:20:38.878Z,1.30
2023-05-19T08:23:05.582Z,1.13
2023-05-19T08:25:32.725Z,1.50
2023-05-19T08:27:59.395Z,1.40
2023-05-19T08:30:25.962Z,1.10
2023-05-19T08:32:52.827Z,1.63
2023-05-19T08:35:19.545Z,1.35
2023-05-19T08:37:46.194Z,1.27
2023-05-19T08:40:17.792Z,1.30
2023-05-19T08:42:47.919Z,0.93
2023-05-19T08:45:14.882Z,2.03
2023-05-19T08:47:42.466Z,1.10
2023-05-19T08:50:11.603Z,0.85
2023-05-19T08:53:04.835Z,1.30
2023-05-19T08:55:36.801Z,1.25
2023-05-19T08:58:04.612Z,1.23
2023-05-19T09:00:33.227Z,1.30
2023-05-19T09:03:16.961Z,0.95
2023-05-19T09:05:46.629Z,3.53
2023-05-19T09:08:13.677Z,1.40
2023-05-19T09:10:40.779Z,2.03
2023-05-19T09:13:07.440Z,1.40
2023-05-19T09:15:36.867Z,1.48
2023-05-19T09:18:12.353Z,1.23
2023-05-19T09:20:41.620Z,1.40
2023-05-19T09:23:13.755Z,1.55
2023-05-19T09:25:51.535Z,1.70
2023-05-19T09:28:24.216Z,1.63
2023-05-19T09:31:11.584Z,1.40
2023-05-19T09:33:42.231Z,1.58
2023-05-19T09:36:11.616Z,2.00
2023-05-19T09:38:39.660Z,2.20
2023-05-19T09:41:08.517Z,1.92
2023-05-19T09:43:35.736Z,2.30
2023-05-19T09:46:12.166Z,2.28
2023-05-19T09:48:43.794Z,2.53
2023-05-19T09:51:10.835Z,1.90
2023-05-19T09:53:39.468Z,2.75
2023-05-19T09:56:08.696Z,2.90
2023-05-19T09:58:36.719Z,2.30
2023-05-19T10:01:04.707Z,2.50
2023-05-19T10:03:35.306Z,2.55
2023-05-19T10:06:04.013Z,2.83
2023-05-19T10:08:32.054Z,2.90
2023-05-19T10:10:59.613Z,2.30
2023-05-19T10:13:29.128Z,2.28
2023-05-19T10:15:59.330Z,2.38
2023-05-19T10:18:30.244Z,2.90
2023-05-19T10:20:57.895Z,2.13
2023-05-19T10:23:25.769Z,2.45
2023-05-19T10:25:57.767Z,2.42
2023-05-19T10:28:31.836Z,2.53
2023-05-19T10:31:01.700Z,3.10
2023-05-19T10:34:00.265Z,2.03
2023-05-19T10:36:30.712Z,2.47
2023-05-19T10:39:05.386Z,3.40
2023-05-19T10:41:53.484Z,2.53
2023-05-19T10:44:44.093Z,2.35
2023-05-19T10:47:12.252Z,2.50
2023-05-19T10:49:40.109Z,2.72
2023-05-19T10:52:29.837Z,2.65
2023-05-19T10:54:58.260Z,2.78
2023-05-19T10:57:28.829Z,2.65
2023-05-19T11:00:00.664Z,2.45
2023-05-19T11:02:44.044Z,2.30
2023-05-19T11:05:12.907Z,2.60
2023-05-19T11:07:42.525Z,2.72
2023-05-19T11:10:09.634Z,2.63
2023-05-19T11:12:44.896Z,2.30
2023-05-19T11:15:15.234Z,2.10
2023-05-19T11:17:45.302Z,3.00
2023-05-19T11:20:34.797Z,2.88
2023-05-19T11:23:08.925Z,2.90
2023-05-19T11:25:48.970Z,2.85
2023-05-19T11:28:19.816Z,3.00
2023-05-19T11:30:52.464Z,2.85
2023-05-19T11:33:20.704Z,2.85
2023-05-19T11:35:49.563Z,3.30
2023-05-19T11:38:18.497Z,3.00
2023-05-19T11:40:45.379Z,2.72
2023-05-19T11:43:12.001Z,2.97
2023-05-19T11:45:39.171Z,2.90
2023-05-19T11:48:06.931Z,3.35
2023-05-19T11:50:33.776Z,3.00
2023-05-19T11:53:01.487Z,3.17
2023-05-19T11:55:29.191Z,3.15
2023-05-19T11:58:03.981Z,3.53
2023-05-19T12:00:40.236Z,3.35
2023-05-19T12:03:08.143Z,3.08
2023-05-19T12:05:44.891Z,3.67
2023-05-19T12:08:12.689Z,3.10
2023-05-19T12:10:40.296Z,3.83
2023-05-19T12:13:09.841Z,3.30
2023-05-19T12:15:37.483Z,3.22
2023-05-19T12:18:04.492Z,3.83
2023-05-19T12:20:32.734Z,3.03
2023-05-19T12:23:01.054Z,4.28
2023-05-19T12:25:29.760Z,3.55
2023-05-19T12:28:03.101Z,3.83
2023-05-19T12:30:32.065Z,3.67
2023-05-19T12:32:59.145Z,3.33
2023-05-19T12:35:33.452Z,3.35
2023-05-19T12:38:07.298Z,3.83
2023-05-19T12:40:36.512Z,3.90
2023-05-19T12:43:04.257Z,3.58
2023-05-19T12:45:39.008Z,3.00
2023-05-19T12:48:11.400Z,3.60
2023-05-19T12:50:38.557Z,3.28
2023-05-19T12:53:08.794Z,3.47
2023-05-19T12:55:43.114Z,3.40
2023-05-19T12:58:11.520Z,3.65
2023-05-19T13:00:42.281Z,3.50
2023-05-19T13:03:22.214Z,3.90
2023-05-19T13:05:50.827Z,4.32
2023-05-19T13:08:23.309Z,3.72
2023-05-19T13:10:49.949Z,3.88
2023-05-19T13:13:17.485Z,3.50
2023-05-19T13:15:45.627Z,3.53
2023-05-19T13:18:13.623Z,4.13
2023-05-19T13:20:41.839Z,4.20
2023-05-19T13:23:16.753Z,4.20
2023-05-19T13:25:43.576Z,3.58
2023-05-19T13:28:11.093Z,4.05
2023-05-19T13:30:39.574Z,3.90
2023-05-19T13:33:07.205Z,3.92
2023-05-19T13:35:37.625Z,4.30
2023-05-19T13:38:10.061Z,4.38
2023-05-19T13:40:37.766Z,3.83
2023-05-19T13:43:04.544Z,4.18
2023-05-19T13:45:31.618Z,4.20
2023-05-19T13:47:58.552Z,4.10
2023-05-19T13:50:25.845Z,4.07
2023-05-19T13:52:52.518Z,4.28
2023-05-19T13:55:19.716Z,4.20
2023-05-19T13:57:46.350Z,4.30
2023-05-19T14:00:13.940Z,4.25
2023-05-19T14:02:40.797Z,4.57
2023-05-19T14:05:08.208Z,3.80
2023-05-19T14:07:35.107Z,3.70
2023-05-19T14:10:02.645Z,4.28
2023-05-19T14:12:38.103Z,4.05
2023-05-19T14:15:11.444Z,4.18
2023-05-19T14:17:38.561Z,4.45
2023-05-19T14:20:05.814Z,4.43
2023-05-19T14:22:32.507Z,3.97
2023-05-19T14:25:00.615Z,3.88
2023-05-19T14:27:27.270Z,3.70
2023-05-19T14:29:53.956Z,3.45
2023-05-19T14:32:21.179Z,4.30
2023-05-19T14:34:47.882Z,4.95
2023-05-19T14:37:14.785Z,3.78
2023-05-19T14:39:41.352Z,3.47
2023-05-19T14:42:08.064Z,3.88
2023-05-19T14:44:34.862Z,3.78
2023-05-19T14:47:02.376Z,3.97
2023-05-19T14:49:29.219Z,3.60
2023-05-19T14:51:56.349Z,3.88
2023-05-19T14:54:22.949Z,4.10
2023-05-19T14:56:49.582Z,4.60
2023-05-19T14:59:16.418Z,3.90
2023-05-19T15:01:43.191Z,3.50
2023-05-19T15:04:09.921Z,3.63
2023-05-19T15:06:36.574Z,4.60
2023-05-19T15:09:03.572Z,4.13
2023-05-19T15:11:30.190Z,4.28
2023-05-19T15:13:57.167Z,3.00
2023-05-19T15:16:23.820Z,4.18
2023-05-19T15:18:51.762Z,3.65
2023-05-19T15:21:18.543Z,3.88
2023-05-19T15:23:45.223Z,3.53
2023-05-19T15:26:11.902Z,3.83
2023-05-19T15:28:38.771Z,4.00
2023-05-19T15:31:05.621Z,3.85
2023-05-19T15:33:32.408Z,3.58
2023-05-19T15:35:59.312Z,3.88
2023-05-19T15:38:27.773Z,3.90
2023-05-19T15:40:56.048Z,4.30
2023-05-19T15:43:22.693Z,4.18
2023-05-19T15:45:52.099Z,3.97
2023-05-19T15:48:19.156Z,3.80
2023-05-19T15:50:45.891Z,4.47
2023-05-19T15:53:12.577Z,4.50
2023-05-19T15:55:39.205Z,4.32
2023-05-19T15:58:05.889Z,4.20
2023-05-19T16:00:32.692Z,3.53
2023-05-19T16:02:59.849Z,3.55
2023-05-19T16:05:26.710Z,3.90
2023-05-19T16:07:53.723Z,3.85
2023-05-19T16:10:20.555Z,3.42
2023-05-19T16:12:47.260Z,4.93
2023-05-19T16:15:13.864Z,3.80
2023-05-19T16:17:41.385Z,3.53
2023-05-19T16:20:08.643Z,4.07
2023-05-19T16:22:35.600Z,4.13
2023-05-19T16:25:02.480Z,4.57
2023-05-19T16:27:29.018Z,4.07
2023-05-19T16:29:56.137Z,3.90
2023-05-19T16:32:22.887Z,3.40
2023-05-19T16:34:49.536Z,3.80
2023-05-19T16:37:16.316Z,4.03
2023-05-19T16:39:43.929Z,4.43
2023-05-19T16:42:10.825Z,4.10
2023-05-19T16:44:37.523Z,3.85
2023-05-19T16:47:05.653Z,3.33
2023-05-19T16:49:33.791Z,3.95
2023-05-19T16:52:00.746Z,3.72
2023-05-19T16:54:28.740Z,4.40
2023-05-19T16:56:55.505Z,3.50
2023-05-19T16:59:22.199Z,4.20
2023-05-19T17:01:49.070Z,3.70
2023-05-19T17:04:15.949Z,4.28
2023-05-19T17:06:42.655Z,4.35
2023-05-19T17:09:09.280Z,3.65
2023-05-19T17:11:36.146Z,4.03
2023-05-19T17:14:07.472Z,3.95
2023-05-19T17:19:02.675Z,3.75
2023-05-19T17:21:29.482Z,3.90
2023-05-19T17:23:56.563Z,3.50
2023-05-19T17:26:23.250Z,3.22
2023-05-19T17:28:50.118Z,3.83
2023-05-19T17:31:16.908Z,3.20
2023-05-19T17:33:43.789Z,4.10
2023-05-19T17:36:10.657Z,4.10
2023-05-19T17:38:40.587Z,3.90
2023-05-19T17:41:12.062Z,3.83
2023-05-19T17:43:40.237Z,3.80
2023-05-19T17:46:07.550Z,5.13
2023-05-19T17:48:34.650Z,4.18
2023-05-19T17:51:01.880Z,3.60
2023-05-19T17:53:29.640Z,4.53
2023-05-19T17:56:02.833Z,4.03
2023-05-19T17:58:29.733Z,3.90
2023-05-19T18:00:56.701Z,3.80
2023-05-19T18:03:24.023Z,4.10
2023-05-19T18:05:51.155Z,4.00
2023-05-19T18:08:18.597Z,4.05
2023-05-19T18:10:51.553Z,4.00
2023-05-19T18:13:18.748Z,3.83
2023-05-19T18:15:45.348Z,3.72
2023-05-19T18:18:12.117Z,4.25
2023-05-19T18:20:41.090Z,4.10
2023-05-19T18:23:07.782Z,3.83
2023-05-19T18:25:35.261Z,3.40
2023-05-19T18:28:01.869Z,3.65
2023-05-19T18:30:28.839Z,3.88
2023-05-19T18:32:55.585Z,4.15
2023-05-19T18:35:22.444Z,4.35
2023-05-19T18:37:49.115Z,4.15
2023-05-19T18:40:15.789Z,4.20
2023-05-19T18:42:42.537Z,4.15
2023-05-19T18:45:09.474Z,4.68
2023-05-19T18:47:36.805Z,4.22
2023-05-19T18:50:04.228Z,4.35
2023-05-19T18:52:31.344Z,3.95
2023-05-19T18:55:00.382Z,4.38
2023-05-19T18:57:27.235Z,4.80
2023-05-19T18:59:53.848Z,4.95
2023-05-19T19:02:20.593Z,4.47
2023-05-19T19:04:47.894Z,4.22
2023-05-19T19:07:14.645Z,4.22
2023-05-19T19:09:43.817Z,4.38
2023-05-19T19:12:10.982Z,4.72
2023-05-19T19:14:38.631Z,4.22
2023-05-19T19:17:05.737Z,4.55
2023-05-19T19:19:32.578Z,4.15
2023-05-19T19:21:59.546Z,4.13
2023-05-19T19:24:26.817Z,4.90
2023-05-19T19:26:53.410Z,4.07
2023-05-19T19:29:21.888Z,4.78
2023-05-19T19:31:48.831Z,3.95
2023-05-19T19:34:15.665Z,4.50
2023-05-19T19:36:42.462Z,4.60
2023-05-19T19:39:09.392Z,6.07
2023-05-19T19:41:36.737Z,7.30
2023-05-19T19:44:03.685Z,6.30
2023-05-19T19:46:30.619Z,6.85
2023-05-19T19:49:00.595Z,6.03
2023-05-19T19:51:28.067Z,5.50
2023-05-19T19:53:54.855Z,5.72
2023-05-19T19:56:24.639Z,5.00
2023-05-19T19:58:51.814Z,5.95
2023-05-19T20:01:23.349Z,4.93
2023-05-19T20:03:50.231Z,4.35
2023-05-19T20:06:16.853Z,4.78
2023-05-19T20:08:43.833Z,4.20
2023-05-19T20:11:10.947Z,4.90
2023-05-19T20:13:37.807Z,3.83
2023-05-19T20:16:04.820Z,4.15
2023-05-19T20:18:31.944Z,4.65
2023-05-19T20:20:58.605Z,5.43
2023-05-19T20:23:25.333Z,4.53
2023-05-19T20:26:10.139Z,4.90
2023-05-19T20:28:38.492Z,4.57
2023-05-19T20:31:07.675Z,4.35
2023-05-19T20:33:34.638Z,4.82
2023-05-19T20:36:01.807Z,5.68
2023-05-19T20:38:28.391Z,4.22
2023-05-19T20:40:55.202Z,4.47
2023-05-19T20:43:21.886Z,5.40
2023-05-19T20:45:48.717Z,4.72
2023-05-19T20:48:18.618Z,5.45
2023-05-19T20:50:45.882Z,6.30
2023-05-19T20:53:12.611Z,6.32
2023-05-19T20:55:39.352Z,6.70
2023-05-19T20:58:06.182Z,5.53
2023-05-19T21:00:33.051Z,6.90
2023-05-19T21:03:00.099Z,6.53
2023-05-19T21:05:26.759Z,13.07
2023-05-19T21:07:53.407Z,9.90
2023-05-19T21:10:20.546Z,7.72
2023-05-19T21:12:47.475Z,7.00
2023-05-19T21:15:14.439Z,6.22
2023-05-19T21:17:41.288Z,6.10
2023-05-19T21:20:08.576Z,5.35
2023-05-19T21:22:35.938Z,4.80
2023-05-19T21:25:02.865Z,4.85
2023-05-19T21:27:32.122Z,5.15
2023-05-19T21:29:58.903Z,6.82
2023-05-19T21:32:25.774Z,7.88
2023-05-19T21:34:52.433Z,5.50
2023-05-19T21:37:19.824Z,5.15
2023-05-19T21:39:46.527Z,4.90
2023-05-19T21:42:13.709Z,5.65
2023-05-19T21:44:40.581Z,5.10
2023-05-19T21:47:07.219Z,5.10
2023-05-19T21:49:34.130Z,5.43
2023-05-19T21:52:00.771Z,4.90
2023-05-19T21:54:27.401Z,4.53
2023-05-19T21:56:54.254Z,5.03
2023-05-19T21:59:23.184Z,5.32
2023-05-19T22:01:50.674Z,5.20
2023-05-19T22:04:18.799Z,5.47
2023-05-19T22:06:45.633Z,5.55
2023-05-19T22:09:12.781Z,5.70
2023-05-19T22:11:39.649Z,4.68
2023-05-19T22:14:06.960Z,5.45
2023-05-19T22:16:33.989Z,5.38
2023-05-19T22:19:00.853Z,5.18
2023-05-19T22:21:27.894Z,4.57
2023-05-19T22:23:54.800Z,5.20
2023-05-19T22:26:22.265Z,5.55
2023-05-19T22:28:50.256Z,5.03
2023-05-19T22:31:17.782Z,5.70
2023-05-19T22:33:44.747Z,5.70
2023-05-19T22:36:11.417Z,5.38
2023-05-19T22:38:38.149Z,5.50
2023-05-19T22:41:05.191Z,4.85
2023-05-19T22:43:31.983Z,4.90
2023-05-19T22:45:58.744Z,5.40
2023-05-19T22:48:25.733Z,5.15
2023-05-19T22:50:52.579Z,5.15
2023-05-19T22:53:19.288Z,5.28
2023-05-19T22:55:46.086Z,4.88
2023-05-19T22:58:12.994Z,5.30
2023-05-19T23:00:39.637Z,4.97
2023-05-19T23:03:06.439Z,5.95
2023-05-19T23:05:33.211Z,5.78
2023-05-19T23:08:00.076Z,5.57
2023-05-19T23:10:26.754Z,5.68
2023-05-19T23:12:53.444Z,4.93
2023-05-19T23:15:20.254Z,5.07
2023-05-19T23:17:47.006Z,4.95
2023-05-19T23:20:13.738Z,5.53
2023-05-19T23:22:40.436Z,4.63
2023-05-19T23:25:07.951Z,4.85
2023-05-19T23:27:37.390Z,5.38
2023-05-19T23:30:04.653Z,4.78
2023-05-19T23:32:31.250Z,4.70
2023-05-19T23:34:58.131Z,5.10
2023-05-19T23:37:24.763Z,5.32
2023-05-19T23:39:51.484Z,5.50
2023-05-19T23:42:18.293Z,4.72
2023-05-19T23:44:45.056Z,4.40
2023-05-19T23:47:11.676Z,5.00
2023-05-19T23:49:38.312Z,5.10
2023-05-19T23:52:05.621Z,4.65
2023-05-19T23:54:32.229Z,5.57
2023-05-19T23:56:59.349Z,4.63
2023-05-19T23:59:26.090Z,4.43
